sensor_id;sensor_type;location;lat;lon;timestamp;P1;P2;P0
61592;PMS5003;47485;51.378;-1.342;2022-09-25T00:01:51;2;2;
61592;PMS5003;47485;51.378;-1.342;2022-09-25T00:04:22;3;2;
61592;PMS5003;47485;51.378;-1.342;2022-09-25T00:06:49;4;4;
61592;PMS5003;47485;51.378;-1.342;2022-09-25T00:09:16;5;2;
61592;PMS5003;47485;51.378;-1.342;2022-09-25T00:11:43;2;2;
61592;PMS5003;47485;51.378;-1.342;2022-09-25T00:14:10;4;2;
61592;PMS5003;47485;51.378;-1.342;2022-09-25T00:16:37;3;3;
61592;PMS5003;47485;51.378;-1.342;2022-09-25T00:19:04;3;2;
61592;PMS5003;47485;51.378;-1.342;2022-09-25T00:21:32;5;3;
61592;PMS5003;47485;51.378;-1.342;2022-09-25T00:24:01;1;1;
61592;PMS5003;47485;51.378;-1.342;2022-09-25T00:26:31;5;3;
61592;PMS5003;47485;51.378;-1.342;2022-09-25T00:29:01;6;4;
61592;PMS5003;47485;51.378;-1.342;2022-09-25T00:31:28;3;3;
61592;PMS5003;47485;51.378;-1.342;2022-09-25T00:33:57;2;2;
61592;PMS5003;47485;51.378;-1.342;2022-09-25T00:36:26;4;2;
61592;PMS5003;47485;51.378;-1.342;2022-09-25T00:38:53;3;2;
61592;PMS5003;47485;51.378;-1.342;2022-09-25T00:41:21;1;1;
61592;PMS5003;47485;51.378;-1.342;2022-09-25T00:43:50;2;2;
61592;PMS5003;47485;51.378;-1.342;2022-09-25T00:46:19;3;3;
61592;PMS5003;47485;51.378;-1.342;2022-09-25T00:48:50;3;3;
61592;PMS5003;47485;51.378;-1.342;2022-09-25T00:51:21;4;3;
61592;PMS5003;47485;51.378;-1.342;2022-09-25T00:53:51;4;3;
61592;PMS5003;47485;51.378;-1.342;2022-09-25T00:56:19;4;2;
61592;PMS5003;47485;51.378;-1.342;2022-09-25T00:58:46;4;4;
61592;PMS5003;47485;51.378;-1.342;2022-09-25T01:01:12;4;3;
61592;PMS5003;47485;51.378;-1.342;2022-09-25T01:03:40;6;6;
61592;PMS5003;47485;51.378;-1.342;2022-09-25T01:06:13;5;3;
61592;PMS5003;47485;51.378;-1.342;2022-09-25T01:08:41;4;3;
61592;PMS5003;47485;51.378;-1.342;2022-09-25T01:11:10;3;3;
61592;PMS5003;47485;51.378;-1.342;2022-09-25T01:13:37;4;2;
61592;PMS5003;47485;51.378;-1.342;2022-09-25T01:16:06;5;4;
61592;PMS5003;47485;51.378;-1.342;2022-09-25T01:18:41;6;5;
61592;PMS5003;47485;51.378;-1.342;2022-09-25T01:21:20;3;3;
61592;PMS5003;47485;51.378;-1.342;2022-09-25T01:24:03;4;4;
61592;PMS5003;47485;51.378;-1.342;2022-09-25T01:27:50;3;3;
61592;PMS5003;47485;51.378;-1.342;2022-09-25T01:30:39;3;3;
61592;PMS5003;47485;51.378;-1.342;2022-09-25T01:33:16;3;3;
61592;PMS5003;47485;51.378;-1.342;2022-09-25T01:35:51;6;4;
61592;PMS5003;47485;51.378;-1.342;2022-09-25T01:38:24;1;1;
61592;PMS5003;47485;51.378;-1.342;2022-09-25T01:41:00;6;4;
61592;PMS5003;47485;51.378;-1.342;2022-09-25T01:43:34;2;2;
61592;PMS5003;47485;51.378;-1.342;2022-09-25T01:46:07;3;3;
61592;PMS5003;47485;51.378;-1.342;2022-09-25T01:48:39;4;4;
61592;PMS5003;47485;51.378;-1.342;2022-09-25T01:51:09;3;3;
61592;PMS5003;47485;51.378;-1.342;2022-09-25T01:53:42;5;1;
61592;PMS5003;47485;51.378;-1.342;2022-09-25T01:56:13;10;10;
61592;PMS5003;47485;51.378;-1.342;2022-09-25T01:58:46;7;4;
61592;PMS5003;47485;51.378;-1.342;2022-09-25T02:01:18;3;3;
61592;PMS5003;47485;51.378;-1.342;2022-09-25T02:03:49;4;4;
61592;PMS5003;47485;51.378;-1.342;2022-09-25T02:06:22;7;5;
61592;PMS5003;47485;51.378;-1.342;2022-09-25T02:08:50;5;5;
61592;PMS5003;47485;51.378;-1.342;2022-09-25T02:11:20;3;3;
61592;PMS5003;47485;51.378;-1.342;2022-09-25T02:13:57;5;4;
61592;PMS5003;47485;51.378;-1.342;2022-09-25T02:16:33;5;2;
61592;PMS5003;47485;51.378;-1.342;2022-09-25T02:19:03;3;3;
61592;PMS5003;47485;51.378;-1.342;2022-09-25T02:21:34;3;3;
61592;PMS5003;47485;51.378;-1.342;2022-09-25T02:24:11;6;5;
61592;PMS5003;47485;51.378;-1.342;2022-09-25T02:26:44;5;5;
61592;PMS5003;47485;51.378;-1.342;2022-09-25T02:29:11;7;4;
61592;PMS5003;47485;51.378;-1.342;2022-09-25T02:31:39;5;3;
61592;PMS5003;47485;51.378;-1.342;2022-09-25T02:34:08;5;5;
61592;PMS5003;47485;51.378;-1.342;2022-09-25T02:36:38;5;5;
61592;PMS5003;47485;51.378;-1.342;2022-09-25T02:39:05;5;3;
61592;PMS5003;47485;51.378;-1.342;2022-09-25T02:41:39;6;6;
61592;PMS5003;47485;51.378;-1.342;2022-09-25T02:44:22;4;4;
61592;PMS5003;47485;51.378;-1.342;2022-09-25T02:47:04;6;3;
61592;PMS5003;47485;51.378;-1.342;2022-09-25T02:49:42;5;4;
61592;PMS5003;47485;51.378;-1.342;2022-09-25T02:52:16;4;4;
61592;PMS5003;47485;51.378;-1.342;2022-09-25T02:54:51;6;5;
61592;PMS5003;47485;51.378;-1.342;2022-09-25T02:57:22;3;3;
61592;PMS5003;47485;51.378;-1.342;2022-09-25T02:59:57;6;5;
61592;PMS5003;47485;51.378;-1.342;2022-09-25T03:02:29;5;5;
61592;PMS5003;47485;51.378;-1.342;2022-09-25T03:04:59;5;5;
61592;PMS5003;47485;51.378;-1.342;2022-09-25T03:07:28;6;5;
61592;PMS5003;47485;51.378;-1.342;2022-09-25T03:09:56;8;6;
61592;PMS5003;47485;51.378;-1.342;2022-09-25T03:12:24;5;4;
61592;PMS5003;47485;51.378;-1.342;2022-09-25T03:14:51;5;5;
61592;PMS5003;47485;51.378;-1.342;2022-09-25T03:17:18;8;7;
61592;PMS5003;47485;51.378;-1.342;2022-09-25T03:19:46;7;6;
61592;PMS5003;47485;51.378;-1.342;2022-09-25T03:22:13;7;6;
61592;PMS5003;47485;51.378;-1.342;2022-09-25T03:24:39;10;6;
61592;PMS5003;47485;51.378;-1.342;2022-09-25T03:27:06;6;4;
61592;PMS5003;47485;51.378;-1.342;2022-09-25T03:29:33;9;7;
61592;PMS5003;47485;51.378;-1.342;2022-09-25T03:32:00;7;7;
61592;PMS5003;47485;51.378;-1.342;2022-09-25T03:34:27;11;10;
61592;PMS5003;47485;51.378;-1.342;2022-09-25T03:36:54;6;6;
61592;PMS5003;47485;51.378;-1.342;2022-09-25T03:39:21;8;5;
61592;PMS5003;47485;51.378;-1.342;2022-09-25T03:41:47;13;10;
61592;PMS5003;47485;51.378;-1.342;2022-09-25T03:44:14;6;6;
61592;PMS5003;47485;51.378;-1.342;2022-09-25T03:46:46;9;5;
61592;PMS5003;47485;51.378;-1.342;2022-09-25T03:49:13;9;8;
61592;PMS5003;47485;51.378;-1.342;2022-09-25T03:51:40;6;6;
61592;PMS5003;47485;51.378;-1.342;2022-09-25T03:54:06;9;8;
61592;PMS5003;47485;51.378;-1.342;2022-09-25T03:56:33;8;7;
61592;PMS5003;47485;51.378;-1.342;2022-09-25T03:59:00;7;6;
61592;PMS5003;47485;51.378;-1.342;2022-09-25T04:01:28;8;8;
61592;PMS5003;47485;51.378;-1.342;2022-09-25T04:03:55;10;6;
61592;PMS5003;47485;51.378;-1.342;2022-09-25T04:06:23;6;6;
61592;PMS5003;47485;51.378;-1.342;2022-09-25T04:08:51;8;7;
61592;PMS5003;47485;51.378;-1.342;2022-09-25T04:11:20;7;7;
61592;PMS5003;47485;51.378;-1.342;2022-09-25T04:13:49;9;8;
61592;PMS5003;47485;51.378;-1.342;2022-09-25T04:16:16;12;9;
61592;PMS5003;47485;51.378;-1.342;2022-09-25T04:18:43;10;9;
61592;PMS5003;47485;51.378;-1.342;2022-09-25T04:21:11;10;8;
61592;PMS5003;47485;51.378;-1.342;2022-09-25T04:23:39;9;6;
61592;PMS5003;47485;51.378;-1.342;2022-09-25T04:26:11;9;8;
61592;PMS5003;47485;51.378;-1.342;2022-09-25T04:28:38;15;11;
61592;PMS5003;47485;51.378;-1.342;2022-09-25T04:31:05;11;9;
61592;PMS5003;47485;51.378;-1.342;2022-09-25T04:33:32;10;6;
61592;PMS5003;47485;51.378;-1.342;2022-09-25T04:36:00;8;8;
61592;PMS5003;47485;51.378;-1.342;2022-09-25T04:38:28;7;7;
61592;PMS5003;47485;51.378;-1.342;2022-09-25T04:40:55;8;6;
61592;PMS5003;47485;51.378;-1.342;2022-09-25T04:43:22;8;8;
61592;PMS5003;47485;51.378;-1.342;2022-09-25T04:45:48;14;12;
61592;PMS5003;47485;51.378;-1.342;2022-09-25T04:48:20;11;9;
61592;PMS5003;47485;51.378;-1.342;2022-09-25T04:50:47;8;7;
61592;PMS5003;47485;51.378;-1.342;2022-09-25T04:53:14;9;8;
61592;PMS5003;47485;51.378;-1.342;2022-09-25T04:55:41;9;8;
61592;PMS5003;47485;51.378;-1.342;2022-09-25T04:58:13;13;9;
61592;PMS5003;47485;51.378;-1.342;2022-09-25T05:00:40;10;10;
61592;PMS5003;47485;51.378;-1.342;2022-09-25T05:03:07;9;9;
61592;PMS5003;47485;51.378;-1.342;2022-09-25T05:05:34;9;8;
61592;PMS5003;47485;51.378;-1.342;2022-09-25T05:08:01;14;11;
61592;PMS5003;47485;51.378;-1.342;2022-09-25T05:10:34;10;9;
61592;PMS5003;47485;51.378;-1.342;2022-09-25T05:13:02;15;12;
61592;PMS5003;47485;51.378;-1.342;2022-09-25T05:15:30;8;6;
61592;PMS5003;47485;51.378;-1.342;2022-09-25T05:17:59;8;7;
61592;PMS5003;47485;51.378;-1.342;2022-09-25T05:20:26;9;8;
61592;PMS5003;47485;51.378;-1.342;2022-09-25T05:22:54;16;15;
61592;PMS5003;47485;51.378;-1.342;2022-09-25T05:25:21;9;6;
61592;PMS5003;47485;51.378;-1.342;2022-09-25T05:27:48;9;8;
61592;PMS5003;47485;51.378;-1.342;2022-09-25T05:30:20;9;9;
61592;PMS5003;47485;51.378;-1.342;2022-09-25T05:32:47;9;9;
61592;PMS5003;47485;51.378;-1.342;2022-09-25T05:35:14;12;9;
61592;PMS5003;47485;51.378;-1.342;2022-09-25T05:37:41;11;9;
61592;PMS5003;47485;51.378;-1.342;2022-09-25T05:40:09;11;9;
61592;PMS5003;47485;51.378;-1.342;2022-09-25T05:42:37;9;7;
61592;PMS5003;47485;51.378;-1.342;2022-09-25T05:45:04;11;10;
61592;PMS5003;47485;51.378;-1.342;2022-09-25T05:47:32;13;8;
61592;PMS5003;47485;51.378;-1.342;2022-09-25T05:49:59;15;11;
61592;PMS5003;47485;51.378;-1.342;2022-09-25T05:52:27;12;9;
61592;PMS5003;47485;51.378;-1.342;2022-09-25T05:54:54;9;8;
61592;PMS5003;47485;51.378;-1.342;2022-09-25T05:57:21;11;10;
61592;PMS5003;47485;51.378;-1.342;2022-09-25T05:59:48;10;9;
61592;PMS5003;47485;51.378;-1.342;2022-09-25T06:02:15;11;11;
61592;PMS5003;47485;51.378;-1.342;2022-09-25T06:04:42;12;9;
61592;PMS5003;47485;51.378;-1.342;2022-09-25T06:07:09;12;9;
61592;PMS5003;47485;51.378;-1.342;2022-09-25T06:09:36;15;12;
61592;PMS5003;47485;51.378;-1.342;2022-09-25T06:12:04;12;12;
61592;PMS5003;47485;51.378;-1.342;2022-09-25T06:14:31;9;8;
61592;PMS5003;47485;51.378;-1.342;2022-09-25T06:16:58;13;11;
61592;PMS5003;47485;51.378;-1.342;2022-09-25T06:19:25;12;11;
61592;PMS5003;47485;51.378;-1.342;2022-09-25T06:21:57;9;9;
61592;PMS5003;47485;51.378;-1.342;2022-09-25T06:24:23;10;9;
61592;PMS5003;47485;51.378;-1.342;2022-09-25T06:26:55;14;10;
61592;PMS5003;47485;51.378;-1.342;2022-09-25T06:29:22;9;8;
61592;PMS5003;47485;51.378;-1.342;2022-09-25T06:31:50;15;13;
61592;PMS5003;47485;51.378;-1.342;2022-09-25T06:34:17;11;11;
61592;PMS5003;47485;51.378;-1.342;2022-09-25T06:36:44;9;8;
61592;PMS5003;47485;51.378;-1.342;2022-09-25T06:39:11;12;10;
61592;PMS5003;47485;51.378;-1.342;2022-09-25T06:41:43;10;10;
61592;PMS5003;47485;51.378;-1.342;2022-09-25T06:44:10;10;9;
61592;PMS5003;47485;51.378;-1.342;2022-09-25T06:46:37;16;13;
61592;PMS5003;47485;51.378;-1.342;2022-09-25T06:49:04;10;10;
61592;PMS5003;47485;51.378;-1.342;2022-09-25T06:51:37;13;11;
61592;PMS5003;47485;51.378;-1.342;2022-09-25T06:54:05;13;8;
61592;PMS5003;47485;51.378;-1.342;2022-09-25T06:56:38;10;8;
61592;PMS5003;47485;51.378;-1.342;2022-09-25T06:59:04;8;7;
61592;PMS5003;47485;51.378;-1.342;2022-09-25T07:01:31;8;8;
61592;PMS5003;47485;51.378;-1.342;2022-09-25T07:03:58;13;11;
61592;PMS5003;47485;51.378;-1.342;2022-09-25T07:06:25;13;11;
61592;PMS5003;47485;51.378;-1.342;2022-09-25T07:08:52;10;8;
61592;PMS5003;47485;51.378;-1.342;2022-09-25T07:11:20;10;8;
61592;PMS5003;47485;51.378;-1.342;2022-09-25T07:13:54;10;9;
61592;PMS5003;47485;51.378;-1.342;2022-09-25T07:16:21;11;10;
61592;PMS5003;47485;51.378;-1.342;2022-09-25T07:18:51;10;7;
61592;PMS5003;47485;51.378;-1.342;2022-09-25T07:21:24;11;10;
61592;PMS5003;47485;51.378;-1.342;2022-09-25T07:23:51;13;10;
61592;PMS5003;47485;51.378;-1.342;2022-09-25T07:26:19;8;7;
61592;PMS5003;47485;51.378;-1.342;2022-09-25T07:28:48;13;9;
61592;PMS5003;47485;51.378;-1.342;2022-09-25T07:31:20;7;6;
61592;PMS5003;47485;51.378;-1.342;2022-09-25T07:33:53;10;8;
61592;PMS5003;47485;51.378;-1.342;2022-09-25T07:36:25;8;7;
61592;PMS5003;47485;51.378;-1.342;2022-09-25T07:38:52;12;11;
61592;PMS5003;47485;51.378;-1.342;2022-09-25T07:41:20;9;8;
61592;PMS5003;47485;51.378;-1.342;2022-09-25T07:43:50;8;7;
61592;PMS5003;47485;51.378;-1.342;2022-09-25T07:46:18;9;8;
61592;PMS5003;47485;51.378;-1.342;2022-09-25T07:48:46;8;8;
61592;PMS5003;47485;51.378;-1.342;2022-09-25T07:51:14;10;7;
61592;PMS5003;47485;51.378;-1.342;2022-09-25T07:53:41;8;8;
61592;PMS5003;47485;51.378;-1.342;2022-09-25T07:56:08;6;6;
61592;PMS5003;47485;51.378;-1.342;2022-09-25T07:58:36;10;8;
61592;PMS5003;47485;51.378;-1.342;2022-09-25T08:01:05;6;5;
61592;PMS5003;47485;51.378;-1.342;2022-09-25T08:03:33;8;6;
61592;PMS5003;47485;51.378;-1.342;2022-09-25T08:06:07;6;5;
61592;PMS5003;47485;51.378;-1.342;2022-09-25T08:08:36;6;5;
61592;PMS5003;47485;51.378;-1.342;2022-09-25T08:11:10;8;5;
61592;PMS5003;47485;51.378;-1.342;2022-09-25T08:13:39;5;4;
61592;PMS5003;47485;51.378;-1.342;2022-09-25T08:16:07;5;5;
61592;PMS5003;47485;51.378;-1.342;2022-09-25T08:18:36;4;3;
61592;PMS5003;47485;51.378;-1.342;2022-09-25T08:21:04;5;3;
61592;PMS5003;47485;51.378;-1.342;2022-09-25T08:23:32;5;4;
61592;PMS5003;47485;51.378;-1.342;2022-09-25T08:25:59;4;4;
61592;PMS5003;47485;51.378;-1.342;2022-09-25T08:28:26;2;2;
61592;PMS5003;47485;51.378;-1.342;2022-09-25T08:30:54;8;4;
61592;PMS5003;47485;51.378;-1.342;2022-09-25T08:33:23;4;3;
61592;PMS5003;47485;51.378;-1.342;2022-09-25T08:35:53;5;3;
61592;PMS5003;47485;51.378;-1.342;2022-09-25T08:38:21;6;4;
61592;PMS5003;47485;51.378;-1.342;2022-09-25T08:40:50;5;2;
61592;PMS5003;47485;51.378;-1.342;2022-09-25T08:43:21;5;3;
61592;PMS5003;47485;51.378;-1.342;2022-09-25T08:45:51;3;3;
61592;PMS5003;47485;51.378;-1.342;2022-09-25T08:48:21;2;2;
61592;PMS5003;47485;51.378;-1.342;2022-09-25T08:51:01;4;4;
61592;PMS5003;47485;51.378;-1.342;2022-09-25T08:53:29;1;1;
61592;PMS5003;47485;51.378;-1.342;2022-09-25T08:55:56;1;1;
61592;PMS5003;47485;51.378;-1.342;2022-09-25T08:58:26;2;2;
61592;PMS5003;47485;51.378;-1.342;2022-09-25T09:00:56;1;1;
61592;PMS5003;47485;51.378;-1.342;2022-09-25T09:03:39;3;0;
61592;PMS5003;47485;51.378;-1.342;2022-09-25T09:06:13;1;1;
61592;PMS5003;47485;51.378;-1.342;2022-09-25T09:08:48;1;1;
61592;PMS5003;47485;51.378;-1.342;2022-09-25T09:11:21;0;0;
61592;PMS5003;47485;51.378;-1.342;2022-09-25T09:13:52;6;2;
61592;PMS5003;47485;51.378;-1.342;2022-09-25T09:16:27;6;4;
61592;PMS5003;47485;51.378;-1.342;2022-09-25T09:18:59;2;2;
61592;PMS5003;47485;51.378;-1.342;2022-09-25T09:21:32;0;0;
61592;PMS5003;47485;51.378;-1.342;2022-09-25T09:24:04;2;1;
61592;PMS5003;47485;51.378;-1.342;2022-09-25T09:26:37;4;1;
61592;PMS5003;47485;51.378;-1.342;2022-09-25T09:29:18;1;1;
61592;PMS5003;47485;51.378;-1.342;2022-09-25T09:31:56;0;0;
61592;PMS5003;47485;51.378;-1.342;2022-09-25T09:34:48;1;1;
61592;PMS5003;47485;51.378;-1.342;2022-09-25T09:37:26;2;0;
61592;PMS5003;47485;51.378;-1.342;2022-09-25T09:40:02;1;1;
61592;PMS5003;47485;51.378;-1.342;2022-09-25T09:42:47;1;1;
61592;PMS5003;47485;51.378;-1.342;2022-09-25T09:45:26;1;1;
61592;PMS5003;47485;51.378;-1.342;2022-09-25T09:48:03;2;1;
61592;PMS5003;47485;51.378;-1.342;2022-09-25T09:50:40;0;0;
61592;PMS5003;47485;51.378;-1.342;2022-09-25T09:53:16;0;0;
61592;PMS5003;47485;51.378;-1.342;2022-09-25T09:55:52;1;1;
61592;PMS5003;47485;51.378;-1.342;2022-09-25T09:58:22;1;0;
61592;PMS5003;47485;51.378;-1.342;2022-09-25T10:00:54;0;0;
61592;PMS5003;47485;51.378;-1.342;2022-09-25T10:03:22;2;1;
61592;PMS5003;47485;51.378;-1.342;2022-09-25T10:05:52;0;0;
61592;PMS5003;47485;51.378;-1.342;2022-09-25T10:08:22;1;0;
61592;PMS5003;47485;51.378;-1.342;2022-09-25T10:10:50;1;1;
61592;PMS5003;47485;51.378;-1.342;2022-09-25T10:13:19;2;0;
61592;PMS5003;47485;51.378;-1.342;2022-09-25T10:15:49;0;0;
61592;PMS5003;47485;51.378;-1.342;2022-09-25T10:18:20;0;0;
61592;PMS5003;47485;51.378;-1.342;2022-09-25T10:20:57;0;0;
61592;PMS5003;47485;51.378;-1.342;2022-09-25T10:23:30;2;1;
61592;PMS5003;47485;51.378;-1.342;2022-09-25T10:26:03;1;0;
61592;PMS5003;47485;51.378;-1.342;2022-09-25T10:28:48;0;0;
61592;PMS5003;47485;51.378;-1.342;2022-09-25T10:31:21;0;0;
61592;PMS5003;47485;51.378;-1.342;2022-09-25T10:33:57;1;0;
61592;PMS5003;47485;51.378;-1.342;2022-09-25T10:36:30;0;0;
61592;PMS5003;47485;51.378;-1.342;2022-09-25T10:38:59;2;1;
61592;PMS5003;47485;51.378;-1.342;2022-09-25T10:41:40;0;0;
61592;PMS5003;47485;51.378;-1.342;2022-09-25T10:44:19;1;0;
61592;PMS5003;47485;51.378;-1.342;2022-09-25T10:46:47;1;1;
61592;PMS5003;47485;51.378;-1.342;2022-09-25T10:49:19;0;0;
61592;PMS5003;47485;51.378;-1.342;2022-09-25T10:51:59;0;0;
61592;PMS5003;47485;51.378;-1.342;2022-09-25T10:54:27;0;0;
61592;PMS5003;47485;51.378;-1.342;2022-09-25T10:56:54;0;0;
61592;PMS5003;47485;51.378;-1.342;2022-09-25T10:59:27;0;0;
61592;PMS5003;47485;51.378;-1.342;2022-09-25T11:01:55;1;1;
61592;PMS5003;47485;51.378;-1.342;2022-09-25T11:04:22;0;0;
61592;PMS5003;47485;51.378;-1.342;2022-09-25T11:06:51;0;0;
61592;PMS5003;47485;51.378;-1.342;2022-09-25T11:09:21;0;0;
61592;PMS5003;47485;51.378;-1.342;2022-09-25T11:11:50;1;1;
61592;PMS5003;47485;51.378;-1.342;2022-09-25T11:14:22;2;1;
61592;PMS5003;47485;51.378;-1.342;2022-09-25T11:16:53;0;0;
61592;PMS5003;47485;51.378;-1.342;2022-09-25T11:19:27;0;0;
61592;PMS5003;47485;51.378;-1.342;2022-09-25T11:22:06;0;0;
61592;PMS5003;47485;51.378;-1.342;2022-09-25T11:24:51;0;0;
61592;PMS5003;47485;51.378;-1.342;2022-09-25T11:27:25;0;0;
61592;PMS5003;47485;51.378;-1.342;2022-09-25T11:30:02;1;0;
61592;PMS5003;47485;51.378;-1.342;2022-09-25T11:32:38;0;0;
61592;PMS5003;47485;51.378;-1.342;2022-09-25T11:35:17;2;0;
61592;PMS5003;47485;51.378;-1.342;2022-09-25T11:37:57;3;1;
61592;PMS5003;47485;51.378;-1.342;2022-09-25T11:40:34;4;1;
61592;PMS5003;47485;51.378;-1.342;2022-09-25T11:43:08;1;1;
61592;PMS5003;47485;51.378;-1.342;2022-09-25T11:45:41;1;1;
61592;PMS5003;47485;51.378;-1.342;2022-09-25T11:48:25;0;0;
61592;PMS5003;47485;51.378;-1.342;2022-09-25T11:51:06;0;0;
61592;PMS5003;47485;51.378;-1.342;2022-09-25T11:53:42;0;0;
61592;PMS5003;47485;51.378;-1.342;2022-09-25T11:56:21;0;0;
61592;PMS5003;47485;51.378;-1.342;2022-09-25T11:58:58;0;0;
61592;PMS5003;47485;51.378;-1.342;2022-09-25T12:01:37;1;1;
61592;PMS5003;47485;51.378;-1.342;2022-09-25T12:04:30;1;1;
61592;PMS5003;47485;51.378;-1.342;2022-09-25T12:07:12;0;0;
61592;PMS5003;47485;51.378;-1.342;2022-09-25T12:09:57;2;0;
61592;PMS5003;47485;51.378;-1.342;2022-09-25T12:12:35;0;0;
61592;PMS5003;47485;51.378;-1.342;2022-09-25T12:15:11;1;1;
61592;PMS5003;47485;51.378;-1.342;2022-09-25T12:17:48;1;0;
61592;PMS5003;47485;51.378;-1.342;2022-09-25T12:20:24;0;0;
61592;PMS5003;47485;51.378;-1.342;2022-09-25T12:23:01;0;0;
61592;PMS5003;47485;51.378;-1.342;2022-09-25T12:25:43;0;0;
61592;PMS5003;47485;51.378;-1.342;2022-09-25T12:28:22;1;0;
61592;PMS5003;47485;51.378;-1.342;2022-09-25T12:30:59;0;0;
61592;PMS5003;47485;51.378;-1.342;2022-09-25T12:33:38;0;0;
61592;PMS5003;47485;51.378;-1.342;2022-09-25T12:36:15;0;0;
61592;PMS5003;47485;51.378;-1.342;2022-09-25T12:38:46;0;0;
61592;PMS5003;47485;51.378;-1.342;2022-09-25T12:41:17;0;0;
61592;PMS5003;47485;51.378;-1.342;2022-09-25T12:43:51;0;0;
61592;PMS5003;47485;51.378;-1.342;2022-09-25T12:46:24;0;0;
61592;PMS5003;47485;51.378;-1.342;2022-09-25T12:48:56;3;1;
61592;PMS5003;47485;51.378;-1.342;2022-09-25T12:51:28;0;0;
61592;PMS5003;47485;51.378;-1.342;2022-09-25T12:54:04;0;0;
61592;PMS5003;47485;51.378;-1.342;2022-09-25T12:56:40;0;0;
61592;PMS5003;47485;51.378;-1.342;2022-09-25T12:59:14;1;1;
61592;PMS5003;47485;51.378;-1.342;2022-09-25T13:01:45;1;0;
61592;PMS5003;47485;51.378;-1.342;2022-09-25T13:04:25;0;0;
61592;PMS5003;47485;51.378;-1.342;2022-09-25T13:07:05;1;1;
61592;PMS5003;47485;51.378;-1.342;2022-09-25T13:09:45;0;0;
61592;PMS5003;47485;51.378;-1.342;2022-09-25T13:12:16;0;0;
61592;PMS5003;47485;51.378;-1.342;2022-09-25T13:14:52;0;0;
61592;PMS5003;47485;51.378;-1.342;2022-09-25T13:17:23;0;0;
61592;PMS5003;47485;51.378;-1.342;2022-09-25T13:19:50;0;0;
61592;PMS5003;47485;51.378;-1.342;2022-09-25T13:22:18;1;1;
61592;PMS5003;47485;51.378;-1.342;2022-09-25T13:24:49;0;0;
61592;PMS5003;47485;51.378;-1.342;2022-09-25T13:27:18;1;0;
61592;PMS5003;47485;51.378;-1.342;2022-09-25T13:29:51;1;0;
61592;PMS5003;47485;51.378;-1.342;2022-09-25T13:32:21;0;0;
61592;PMS5003;47485;51.378;-1.342;2022-09-25T13:34:50;1;1;
61592;PMS5003;47485;51.378;-1.342;2022-09-25T13:37:23;0;0;
61592;PMS5003;47485;51.378;-1.342;2022-09-25T13:39:52;0;0;
61592;PMS5003;47485;51.378;-1.342;2022-09-25T13:42:20;0;0;
61592;PMS5003;47485;51.378;-1.342;2022-09-25T13:44:55;0;0;
61592;PMS5003;47485;51.378;-1.342;2022-09-25T13:47:37;0;0;
61592;PMS5003;47485;51.378;-1.342;2022-09-25T13:50:21;0;0;
61592;PMS5003;47485;51.378;-1.342;2022-09-25T13:53:13;0;0;
61592;PMS5003;47485;51.378;-1.342;2022-09-25T13:56:49;0;0;
61592;PMS5003;47485;51.378;-1.342;2022-09-25T13:59:19;0;0;
61592;PMS5003;47485;51.378;-1.342;2022-09-25T14:01:49;5;3;
61592;PMS5003;47485;51.378;-1.342;2022-09-25T14:04:21;0;0;
61592;PMS5003;47485;51.378;-1.342;2022-09-25T14:06:53;0;0;
61592;PMS5003;47485;51.378;-1.342;2022-09-25T14:09:29;0;0;
61592;PMS5003;47485;51.378;-1.342;2022-09-25T14:12:00;0;0;
61592;PMS5003;47485;51.378;-1.342;2022-09-25T14:14:33;0;0;
61592;PMS5003;47485;51.378;-1.342;2022-09-25T14:17:08;0;0;
61592;PMS5003;47485;51.378;-1.342;2022-09-25T14:19:41;1;1;
61592;PMS5003;47485;51.378;-1.342;2022-09-25T14:22:18;0;0;
61592;PMS5003;47485;51.378;-1.342;2022-09-25T14:24:52;0;0;
61592;PMS5003;47485;51.378;-1.342;2022-09-25T14:27:21;0;0;
61592;PMS5003;47485;51.378;-1.342;2022-09-25T14:29:49;1;1;
61592;PMS5003;47485;51.378;-1.342;2022-09-25T14:32:20;0;0;
61592;PMS5003;47485;51.378;-1.342;2022-09-25T14:35:45;0;0;
61592;PMS5003;47485;51.378;-1.342;2022-09-25T14:38:54;0;0;
61592;PMS5003;47485;51.378;-1.342;2022-09-25T14:41:36;0;0;
61592;PMS5003;47485;51.378;-1.342;2022-09-25T14:44:24;0;0;
61592;PMS5003;47485;51.378;-1.342;2022-09-25T14:47:08;0;0;
61592;PMS5003;47485;51.378;-1.342;2022-09-25T14:49:38;0;0;
61592;PMS5003;47485;51.378;-1.342;2022-09-25T14:52:10;0;0;
61592;PMS5003;47485;51.378;-1.342;2022-09-25T14:54:41;1;0;
61592;PMS5003;47485;51.378;-1.342;2022-09-25T14:57:10;0;0;
61592;PMS5003;47485;51.378;-1.342;2022-09-25T14:59:41;1;1;
61592;PMS5003;47485;51.378;-1.342;2022-09-25T15:02:14;0;0;
61592;PMS5003;47485;51.378;-1.342;2022-09-25T15:04:44;0;0;
61592;PMS5003;47485;51.378;-1.342;2022-09-25T15:07:13;0;0;
61592;PMS5003;47485;51.378;-1.342;2022-09-25T15:09:42;0;0;
61592;PMS5003;47485;51.378;-1.342;2022-09-25T15:12:15;0;0;
61592;PMS5003;47485;51.378;-1.342;2022-09-25T15:15:01;0;0;
61592;PMS5003;47485;51.378;-1.342;2022-09-25T15:17:33;1;1;
61592;PMS5003;47485;51.378;-1.342;2022-09-25T15:20:11;1;0;
61592;PMS5003;47485;51.378;-1.342;2022-09-25T15:22:44;0;0;
61592;PMS5003;47485;51.378;-1.342;2022-09-25T15:25:17;0;0;
61592;PMS5003;47485;51.378;-1.342;2022-09-25T15:27:47;1;1;
61592;PMS5003;47485;51.378;-1.342;2022-09-25T15:30:14;0;0;
61592;PMS5003;47485;51.378;-1.342;2022-09-25T15:32:49;0;0;
61592;PMS5003;47485;51.378;-1.342;2022-09-25T15:35:21;0;0;
61592;PMS5003;47485;51.378;-1.342;2022-09-25T15:37:48;0;0;
61592;PMS5003;47485;51.378;-1.342;2022-09-25T15:40:26;1;0;
61592;PMS5003;47485;51.378;-1.342;2022-09-25T15:42:53;0;0;
61592;PMS5003;47485;51.378;-1.342;2022-09-25T15:45:42;2;0;
61592;PMS5003;47485;51.378;-1.342;2022-09-25T15:48:16;1;1;
61592;PMS5003;47485;51.378;-1.342;2022-09-25T15:50:47;0;0;
61592;PMS5003;47485;51.378;-1.342;2022-09-25T15:53:16;1;0;
61592;PMS5003;47485;51.378;-1.342;2022-09-25T15:55:47;1;0;
61592;PMS5003;47485;51.378;-1.342;2022-09-25T15:58:16;0;0;
61592;PMS5003;47485;51.378;-1.342;2022-09-25T16:01:00;0;0;
61592;PMS5003;47485;51.378;-1.342;2022-09-25T16:03:28;2;1;
61592;PMS5003;47485;51.378;-1.342;2022-09-25T16:05:56;0;0;
61592;PMS5003;47485;51.378;-1.342;2022-09-25T16:08:26;2;1;
61592;PMS5003;47485;51.378;-1.342;2022-09-25T16:11:02;2;1;
61592;PMS5003;47485;51.378;-1.342;2022-09-25T16:13:31;0;0;
61592;PMS5003;47485;51.378;-1.342;2022-09-25T16:15:58;0;0;
61592;PMS5003;47485;51.378;-1.342;2022-09-25T16:18:36;1;1;
61592;PMS5003;47485;51.378;-1.342;2022-09-25T16:21:08;1;1;
61592;PMS5003;47485;51.378;-1.342;2022-09-25T16:23:40;0;0;
61592;PMS5003;47485;51.378;-1.342;2022-09-25T16:26:12;1;1;
61592;PMS5003;47485;51.378;-1.342;2022-09-25T16:28:47;2;1;
61592;PMS5003;47485;51.378;-1.342;2022-09-25T16:31:20;3;1;
61592;PMS5003;47485;51.378;-1.342;2022-09-25T16:33:49;1;1;
61592;PMS5003;47485;51.378;-1.342;2022-09-25T16:36:19;1;1;
61592;PMS5003;47485;51.378;-1.342;2022-09-25T16:39:24;2;2;
61592;PMS5003;47485;51.378;-1.342;2022-09-25T16:41:54;1;1;
61592;PMS5003;47485;51.378;-1.342;2022-09-25T16:44:49;2;2;
61592;PMS5003;47485;51.378;-1.342;2022-09-25T16:47:17;1;0;
61592;PMS5003;47485;51.378;-1.342;2022-09-25T16:49:45;2;0;
61592;PMS5003;47485;51.378;-1.342;2022-09-25T16:52:14;1;1;
61592;PMS5003;47485;51.378;-1.342;2022-09-25T16:54:43;2;2;
61592;PMS5003;47485;51.378;-1.342;2022-09-25T16:57:10;2;1;
61592;PMS5003;47485;51.378;-1.342;2022-09-25T16:59:37;1;1;
61592;PMS5003;47485;51.378;-1.342;2022-09-25T17:02:09;2;1;
61592;PMS5003;47485;51.378;-1.342;2022-09-25T17:04:46;1;1;